sensor_id;sensor_type;location;lat;lon;timestamp;P1;durP1;ratioP1;P2;durP2;ratioP2
44572;SDS011;31762;45.420;10.072;2023-08-01T00:01:48;2.88;;;1.42;;
44572;SDS011;31762;45.420;10.072;2023-08-01T00:06:50;2.83;;;1.80;;
44572;SDS011;31762;45.420;10.072;2023-08-01T00:11:52;1.70;;;1.57;;
44572;SDS011;31762;45.420;10.072;2023-08-01T00:16:54;1.77;;;1.50;;
44572;SDS011;31762;45.420;10.072;2023-08-01T00:21:57;3.35;;;1.60;;
44572;SDS011;31762;45.420;10.072;2023-08-01T00:26:59;1.83;;;1.52;;
44572;SDS011;31762;45.420;10.072;2023-08-01T00:32:01;2.40;;;1.50;;
44572;SDS011;31762;45.420;10.072;2023-08-01T00:37:04;2.13;;;1.83;;
44572;SDS011;31762;45.420;10.072;2023-08-01T00:42:07;2.08;;;1.67;;
44572;SDS011;31762;45.420;10.072;2023-08-01T00:47:09;2.40;;;1.60;;
44572;SDS011;31762;45.420;10.072;2023-08-01T00:52:11;1.70;;;1.50;;
44572;SDS011;31762;45.420;10.072;2023-08-01T00:57:13;2.50;;;2.30;;
44572;SDS011;31762;45.420;10.072;2023-08-01T01:02:16;1.70;;;1.55;;
44572;SDS011;31762;45.420;10.072;2023-08-01T01:07:18;1.80;;;1.40;;
44572;SDS011;31762;45.420;10.072;2023-08-01T01:12:21;3.38;;;1.67;;
44572;SDS011;31762;45.420;10.072;2023-08-01T01:17:23;1.73;;;1.63;;
44572;SDS011;31762;45.420;10.072;2023-08-01T01:22:25;2.90;;;1.60;;
44572;SDS011;31762;45.420;10.072;2023-08-01T01:27:29;2.33;;;1.73;;
44572;SDS011;31762;45.420;10.072;2023-08-01T01:32:31;1.50;;;1.40;;
44572;SDS011;31762;45.420;10.072;2023-08-01T01:37:34;1.75;;;1.30;;
44572;SDS011;31762;45.420;10.072;2023-08-01T01:42:36;2.20;;;1.58;;
44572;SDS011;31762;45.420;10.072;2023-08-01T01:47:38;1.87;;;1.37;;
44572;SDS011;31762;45.420;10.072;2023-08-01T01:52:40;2.03;;;1.50;;
44572;SDS011;31762;45.420;10.072;2023-08-01T01:57:43;2.30;;;1.30;;
44572;SDS011;31762;45.420;10.072;2023-08-01T02:02:45;2.53;;;1.40;;
44572;SDS011;31762;45.420;10.072;2023-08-01T02:07:47;2.25;;;1.45;;
44572;SDS011;31762;45.420;10.072;2023-08-01T02:12:49;2.80;;;1.35;;
44572;SDS011;31762;45.420;10.072;2023-08-01T02:17:52;3.55;;;1.90;;
44572;SDS011;31762;45.420;10.072;2023-08-01T02:22:54;2.20;;;1.50;;
44572;SDS011;31762;45.420;10.072;2023-08-01T02:27:56;2.27;;;1.63;;
44572;SDS011;31762;45.420;10.072;2023-08-01T02:32:59;1.92;;;1.73;;
44572;SDS011;31762;45.420;10.072;2023-08-01T02:38:01;1.77;;;1.40;;
44572;SDS011;31762;45.420;10.072;2023-08-01T02:43:04;1.90;;;1.42;;
44572;SDS011;31762;45.420;10.072;2023-08-01T02:48:06;1.98;;;1.58;;
44572;SDS011;31762;45.420;10.072;2023-08-01T02:53:08;2.90;;;1.53;;
44572;SDS011;31762;45.420;10.072;2023-08-01T02:58:11;2.50;;;1.75;;
44572;SDS011;31762;45.420;10.072;2023-08-01T03:03:13;1.75;;;1.55;;
44572;SDS011;31762;45.420;10.072;2023-08-01T03:08:15;1.67;;;1.40;;
44572;SDS011;31762;45.420;10.072;2023-08-01T03:13:18;3.30;;;1.40;;
44572;SDS011;31762;45.420;10.072;2023-08-01T03:18:20;1.88;;;1.40;;
44572;SDS011;31762;45.420;10.072;2023-08-01T03:23:22;1.73;;;1.53;;
44572;SDS011;31762;45.420;10.072;2023-08-01T03:28:25;2.22;;;1.33;;
44572;SDS011;31762;45.420;10.072;2023-08-01T03:33:28;2.50;;;1.85;;
44572;SDS011;31762;45.420;10.072;2023-08-01T03:38:30;2.17;;;1.40;;
44572;SDS011;31762;45.420;10.072;2023-08-01T03:43:32;1.85;;;1.30;;
44572;SDS011;31762;45.420;10.072;2023-08-01T03:48:34;1.85;;;1.35;;
44572;SDS011;31762;45.420;10.072;2023-08-01T03:53:37;2.67;;;1.52;;
44572;SDS011;31762;45.420;10.072;2023-08-01T03:58:39;1.30;;;1.20;;
44572;SDS011;31762;45.420;10.072;2023-08-01T04:03:41;3.90;;;1.80;;
44572;SDS011;31762;45.420;10.072;2023-08-01T04:08:43;2.40;;;1.60;;
44572;SDS011;31762;45.420;10.072;2023-08-01T04:13:46;1.60;;;1.37;;
44572;SDS011;31762;45.420;10.072;2023-08-01T04:18:48;2.28;;;1.30;;
44572;SDS011;31762;45.420;10.072;2023-08-01T04:23:50;1.70;;;1.45;;
44572;SDS011;31762;45.420;10.072;2023-08-01T04:28:53;2.25;;;1.30;;
44572;SDS011;31762;45.420;10.072;2023-08-01T04:33:55;2.37;;;1.40;;
44572;SDS011;31762;45.420;10.072;2023-08-01T04:38:57;7.28;;;1.70;;
44572;SDS011;31762;45.420;10.072;2023-08-01T04:43:59;1.70;;;1.60;;
44572;SDS011;31762;45.420;10.072;2023-08-01T04:49:02;2.70;;;1.30;;
44572;SDS011;31762;45.420;10.072;2023-08-01T04:54:04;3.45;;;1.55;;
44572;SDS011;31762;45.420;10.072;2023-08-01T04:59:06;2.22;;;1.40;;
44572;SDS011;31762;45.420;10.072;2023-08-01T05:04:09;2.43;;;1.53;;
44572;SDS011;31762;45.420;10.072;2023-08-01T05:09:11;1.63;;;1.30;;
44572;SDS011;31762;45.420;10.072;2023-08-01T05:14:13;2.35;;;1.60;;
44572;SDS011;31762;45.420;10.072;2023-08-01T05:19:15;1.90;;;1.23;;
44572;SDS011;31762;45.420;10.072;2023-08-01T05:24:17;4.10;;;1.38;;
44572;SDS011;31762;45.420;10.072;2023-08-01T05:29:20;2.27;;;1.60;;
44572;SDS011;31762;45.420;10.072;2023-08-01T05:34:22;1.73;;;1.30;;
44572;SDS011;31762;45.420;10.072;2023-08-01T05:39:24;2.05;;;1.40;;
44572;SDS011;31762;45.420;10.072;2023-08-01T05:44:26;1.98;;;1.20;;
44572;SDS011;31762;45.420;10.072;2023-08-01T05:49:28;2.83;;;1.50;;
44572;SDS011;31762;45.420;10.072;2023-08-01T05:54:31;3.08;;;1.70;;
44572;SDS011;31762;45.420;10.072;2023-08-01T05:59:33;2.45;;;1.83;;
44572;SDS011;31762;45.420;10.072;2023-08-01T06:04:35;1.77;;;1.50;;
44572;SDS011;31762;45.420;10.072;2023-08-01T06:09:38;2.42;;;1.55;;
44572;SDS011;31762;45.420;10.072;2023-08-01T06:14:40;2.05;;;1.30;;
44572;SDS011;31762;45.420;10.072;2023-08-01T06:19:42;1.88;;;1.40;;
44572;SDS011;31762;45.420;10.072;2023-08-01T06:24:44;1.92;;;1.20;;
44572;SDS011;31762;45.420;10.072;2023-08-01T06:29:46;2.70;;;1.60;;
44572;SDS011;31762;45.420;10.072;2023-08-01T06:34:49;2.40;;;1.20;;
44572;SDS011;31762;45.420;10.072;2023-08-01T06:39:51;2.50;;;1.40;;
44572;SDS011;31762;45.420;10.072;2023-08-01T06:44:53;3.15;;;1.50;;
44572;SDS011;31762;45.420;10.072;2023-08-01T06:49:55;3.10;;;1.40;;
44572;SDS011;31762;45.420;10.072;2023-08-01T06:54:58;1.98;;;1.63;;
44572;SDS011;31762;45.420;10.072;2023-08-01T07:00:00;2.75;;;2.30;;
44572;SDS011;31762;45.420;10.072;2023-08-01T07:05:02;3.10;;;2.10;;
44572;SDS011;31762;45.420;10.072;2023-08-01T07:10:05;2.40;;;1.73;;
44572;SDS011;31762;45.420;10.072;2023-08-01T07:15:07;2.63;;;1.90;;
44572;SDS011;31762;45.420;10.072;2023-08-01T07:20:10;3.30;;;1.70;;
44572;SDS011;31762;45.420;10.072;2023-08-01T07:25:12;2.38;;;1.92;;
44572;SDS011;31762;45.420;10.072;2023-08-01T07:30:14;1.90;;;1.63;;
44572;SDS011;31762;45.420;10.072;2023-08-01T07:35:17;2.03;;;1.40;;
44572;SDS011;31762;45.420;10.072;2023-08-01T07:40:19;3.72;;;1.70;;
44572;SDS011;31762;45.420;10.072;2023-08-01T07:45:21;2.28;;;1.40;;
44572;SDS011;31762;45.420;10.072;2023-08-01T07:50:23;2.35;;;1.40;;
44572;SDS011;31762;45.420;10.072;2023-08-01T07:55:26;2.10;;;1.33;;
44572;SDS011;31762;45.420;10.072;2023-08-01T08:00:28;3.23;;;1.40;;
44572;SDS011;31762;45.420;10.072;2023-08-01T08:05:30;2.30;;;2.10;;
44572;SDS011;31762;45.420;10.072;2023-08-01T08:10:32;1.65;;;1.20;;
44572;SDS011;31762;45.420;10.072;2023-08-01T08:15:34;3.50;;;1.67;;
44572;SDS011;31762;45.420;10.072;2023-08-01T08:20:41;1.80;;;1.20;;
44572;SDS011;31762;45.420;10.072;2023-08-01T08:25:43;2.20;;;1.20;;
44572;SDS011;31762;45.420;10.072;2023-08-01T08:30:46;2.57;;;1.30;;
44572;SDS011;31762;45.420;10.072;2023-08-01T08:35:48;3.93;;;1.97;;
44572;SDS011;31762;45.420;10.072;2023-08-01T08:46:08;2.13;;;1.40;;
44572;SDS011;31762;45.420;10.072;2023-08-01T08:51:11;1.83;;;1.40;;
44572;SDS011;31762;45.420;10.072;2023-08-01T08:56:13;2.00;;;1.38;;
44572;SDS011;31762;45.420;10.072;2023-08-01T09:01:17;3.05;;;1.77;;
44572;SDS011;31762;45.420;10.072;2023-08-01T09:06:21;3.30;;;1.30;;
44572;SDS011;31762;45.420;10.072;2023-08-01T09:11:25;2.10;;;1.25;;
44572;SDS011;31762;45.420;10.072;2023-08-01T09:16:28;1.47;;;1.13;;
44572;SDS011;31762;45.420;10.072;2023-08-01T09:21:31;1.38;;;1.00;;
44572;SDS011;31762;45.420;10.072;2023-08-01T09:26:34;2.08;;;1.25;;
44572;SDS011;31762;45.420;10.072;2023-08-01T09:31:37;2.73;;;1.27;;
44572;SDS011;31762;45.420;10.072;2023-08-01T09:36:41;2.70;;;1.50;;
44572;SDS011;31762;45.420;10.072;2023-08-01T09:41:43;2.63;;;1.33;;
44572;SDS011;31762;45.420;10.072;2023-08-01T09:46:59;1.90;;;1.30;;
44572;SDS011;31762;45.420;10.072;2023-08-01T09:52:01;2.00;;;1.52;;
44572;SDS011;31762;45.420;10.072;2023-08-01T09:57:04;2.42;;;1.23;;
44572;SDS011;31762;45.420;10.072;2023-08-01T10:02:07;2.13;;;1.48;;
44572;SDS011;31762;45.420;10.072;2023-08-01T10:07:17;2.22;;;1.77;;
44572;SDS011;31762;45.420;10.072;2023-08-01T10:12:21;1.95;;;1.50;;
44572;SDS011;31762;45.420;10.072;2023-08-01T10:17:24;2.17;;;1.40;;
44572;SDS011;31762;45.420;10.072;2023-08-01T10:22:27;2.67;;;2.20;;
44572;SDS011;31762;45.420;10.072;2023-08-01T10:27:29;2.60;;;2.40;;
44572;SDS011;31762;45.420;10.072;2023-08-01T10:32:32;1.80;;;1.33;;
44572;SDS011;31762;45.420;10.072;2023-08-01T10:37:44;3.47;;;2.45;;
44572;SDS011;31762;45.420;10.072;2023-08-01T10:42:46;2.47;;;1.30;;
44572;SDS011;31762;45.420;10.072;2023-08-01T10:47:49;2.42;;;1.45;;
44572;SDS011;31762;45.420;10.072;2023-08-01T10:52:51;3.45;;;2.40;;
44572;SDS011;31762;45.420;10.072;2023-08-01T10:58:03;2.50;;;1.60;;
44572;SDS011;31762;45.420;10.072;2023-08-01T11:03:06;2.73;;;1.50;;
44572;SDS011;31762;45.420;10.072;2023-08-01T11:08:08;2.05;;;1.60;;
44572;SDS011;31762;45.420;10.072;2023-08-01T11:13:11;1.85;;;1.45;;
44572;SDS011;31762;45.420;10.072;2023-08-01T11:18:13;2.30;;;1.55;;
44572;SDS011;31762;45.420;10.072;2023-08-01T11:23:16;1.90;;;1.55;;
44572;SDS011;31762;45.420;10.072;2023-08-01T11:28:18;1.90;;;1.60;;
44572;SDS011;31762;45.420;10.072;2023-08-01T11:33:21;2.53;;;1.60;;
44572;SDS011;31762;45.420;10.072;2023-08-01T11:38:23;2.30;;;2.00;;
44572;SDS011;31762;45.420;10.072;2023-08-01T11:43:26;2.13;;;1.70;;
44572;SDS011;31762;45.420;10.072;2023-08-01T11:48:28;2.83;;;1.80;;
44572;SDS011;31762;45.420;10.072;2023-08-01T11:53:30;3.70;;;1.93;;
44572;SDS011;31762;45.420;10.072;2023-08-01T12:04:09;2.53;;;2.00;;
44572;SDS011;31762;45.420;10.072;2023-08-01T12:09:08;2.25;;;1.83;;
44572;SDS011;31762;45.420;10.072;2023-08-01T12:14:14;2.53;;;2.10;;
44572;SDS011;31762;45.420;10.072;2023-08-01T12:19:17;2.70;;;2.30;;
44572;SDS011;31762;45.420;10.072;2023-08-01T12:24:19;3.42;;;2.10;;
44572;SDS011;31762;45.420;10.072;2023-08-01T12:29:22;2.88;;;2.25;;
44572;SDS011;31762;45.420;10.072;2023-08-01T12:34:24;2.60;;;1.90;;
44572;SDS011;31762;45.420;10.072;2023-08-01T12:39:26;3.25;;;2.50;;
44572;SDS011;31762;45.420;10.072;2023-08-01T12:44:28;2.87;;;2.27;;
44572;SDS011;31762;45.420;10.072;2023-08-01T12:49:31;3.58;;;2.42;;
44572;SDS011;31762;45.420;10.072;2023-08-01T12:54:33;3.00;;;2.30;;
44572;SDS011;31762;45.420;10.072;2023-08-01T12:59:35;4.13;;;2.40;;
44572;SDS011;31762;45.420;10.072;2023-08-01T13:04:38;2.83;;;2.17;;
44572;SDS011;31762;45.420;10.072;2023-08-01T13:09:40;3.10;;;2.65;;
44572;SDS011;31762;45.420;10.072;2023-08-01T13:14:42;3.58;;;2.17;;
44572;SDS011;31762;45.420;10.072;2023-08-01T13:25:34;3.17;;;2.50;;
44572;SDS011;31762;45.420;10.072;2023-08-01T13:30:36;4.53;;;2.42;;
44572;SDS011;31762;45.420;10.072;2023-08-01T13:35:38;2.90;;;2.30;;
44572;SDS011;31762;45.420;10.072;2023-08-01T13:40:40;2.90;;;2.20;;
44572;SDS011;31762;45.420;10.072;2023-08-01T13:45:43;3.90;;;2.70;;
44572;SDS011;31762;45.420;10.072;2023-08-01T13:50:45;4.15;;;2.20;;
44572;SDS011;31762;45.420;10.072;2023-08-01T13:55:48;3.47;;;2.53;;
44572;SDS011;31762;45.420;10.072;2023-08-01T14:00:50;2.50;;;2.30;;
44572;SDS011;31762;45.420;10.072;2023-08-01T14:05:52;3.53;;;2.67;;
44572;SDS011;31762;45.420;10.072;2023-08-01T14:10:54;4.40;;;2.90;;
44572;SDS011;31762;45.420;10.072;2023-08-01T14:15:57;3.25;;;2.30;;
44572;SDS011;31762;45.420;10.072;2023-08-01T14:20:59;5.47;;;2.90;;
44572;SDS011;31762;45.420;10.072;2023-08-01T14:26:01;4.27;;;2.50;;
44572;SDS011;31762;45.420;10.072;2023-08-01T14:31:04;3.17;;;2.42;;
44572;SDS011;31762;45.420;10.072;2023-08-01T14:36:09;3.50;;;2.65;;
44572;SDS011;31762;45.420;10.072;2023-08-01T14:41:12;3.60;;;2.40;;
44572;SDS011;31762;45.420;10.072;2023-08-01T14:46:35;3.67;;;2.80;;
44572;SDS011;31762;45.420;10.072;2023-08-01T14:51:37;2.90;;;2.58;;
44572;SDS011;31762;45.420;10.072;2023-08-01T14:56:40;4.00;;;3.05;;
44572;SDS011;31762;45.420;10.072;2023-08-01T15:01:42;2.97;;;2.63;;
44572;SDS011;31762;45.420;10.072;2023-08-01T15:06:45;3.55;;;2.60;;
44572;SDS011;31762;45.420;10.072;2023-08-01T15:11:47;3.53;;;2.78;;
44572;SDS011;31762;45.420;10.072;2023-08-01T15:16:49;3.95;;;2.78;;
44572;SDS011;31762;45.420;10.072;2023-08-01T15:21:52;3.93;;;2.60;;
44572;SDS011;31762;45.420;10.072;2023-08-01T15:26:54;3.55;;;2.95;;
44572;SDS011;31762;45.420;10.072;2023-08-01T15:31:56;3.83;;;3.08;;
44572;SDS011;31762;45.420;10.072;2023-08-01T15:36:58;2.83;;;2.50;;
44572;SDS011;31762;45.420;10.072;2023-08-01T15:42:01;2.97;;;2.67;;
44572;SDS011;31762;45.420;10.072;2023-08-01T15:47:03;2.58;;;2.38;;
44572;SDS011;31762;45.420;10.072;2023-08-01T15:52:06;3.47;;;2.45;;
44572;SDS011;31762;45.420;10.072;2023-08-01T15:57:08;3.63;;;2.90;;
44572;SDS011;31762;45.420;10.072;2023-08-01T16:02:10;3.08;;;2.47;;
44572;SDS011;31762;45.420;10.072;2023-08-01T16:07:13;4.80;;;2.90;;
44572;SDS011;31762;45.420;10.072;2023-08-01T16:12:15;3.10;;;2.80;;
44572;SDS011;31762;45.420;10.072;2023-08-01T16:17:17;3.15;;;2.85;;
44572;SDS011;31762;45.420;10.072;2023-08-01T16:22:20;3.40;;;2.85;;
44572;SDS011;31762;45.420;10.072;2023-08-01T16:27:22;2.70;;;2.47;;
44572;SDS011;31762;45.420;10.072;2023-08-01T16:32:24;4.07;;;2.70;;
44572;SDS011;31762;45.420;10.072;2023-08-01T16:37:26;4.97;;;2.72;;
44572;SDS011;31762;45.420;10.072;2023-08-01T16:42:29;4.63;;;2.60;;
44572;SDS011;31762;45.420;10.072;2023-08-01T16:47:31;5.00;;;3.25;;
44572;SDS011;31762;45.420;10.072;2023-08-01T16:52:44;3.90;;;2.90;;
44572;SDS011;31762;45.420;10.072;2023-08-01T16:57:47;3.58;;;2.90;;
44572;SDS011;31762;45.420;10.072;2023-08-01T17:02:49;3.65;;;3.25;;
44572;SDS011;31762;45.420;10.072;2023-08-01T17:07:51;5.82;;;3.33;;
44572;SDS011;31762;45.420;10.072;2023-08-01T17:12:54;3.20;;;2.90;;
44572;SDS011;31762;45.420;10.072;2023-08-01T17:17:56;3.20;;;2.90;;
44572;SDS011;31762;45.420;10.072;2023-08-01T17:22:59;4.47;;;3.07;;
44572;SDS011;31762;45.420;10.072;2023-08-01T17:28:01;5.13;;;3.13;;
44572;SDS011;31762;45.420;10.072;2023-08-01T17:33:04;3.00;;;2.70;;
44572;SDS011;31762;45.420;10.072;2023-08-01T17:38:07;4.00;;;3.10;;
44572;SDS011;31762;45.420;10.072;2023-08-01T17:43:09;4.18;;;3.35;;
44572;SDS011;31762;45.420;10.072;2023-08-01T17:48:11;3.25;;;2.78;;
44572;SDS011;31762;45.420;10.072;2023-08-01T17:53:14;3.87;;;3.47;;
44572;SDS011;31762;45.420;10.072;2023-08-01T17:58:16;4.73;;;3.60;;
44572;SDS011;31762;45.420;10.072;2023-08-01T18:03:18;3.72;;;3.30;;
44572;SDS011;31762;45.420;10.072;2023-08-01T18:08:20;5.13;;;3.30;;
44572;SDS011;31762;45.420;10.072;2023-08-01T18:13:23;5.07;;;2.97;;
44572;SDS011;31762;45.420;10.072;2023-08-01T18:18:26;3.42;;;2.95;;
44572;SDS011;31762;45.420;10.072;2023-08-01T18:23:28;5.17;;;3.40;;
44572;SDS011;31762;45.420;10.072;2023-08-01T18:28:30;4.03;;;3.25;;
44572;SDS011;31762;45.420;10.072;2023-08-01T18:33:33;3.40;;;3.10;;
44572;SDS011;31762;45.420;10.072;2023-08-01T18:38:35;5.05;;;3.47;;
44572;SDS011;31762;45.420;10.072;2023-08-01T18:43:39;4.35;;;3.60;;
44572;SDS011;31762;45.420;10.072;2023-08-01T18:48:41;5.50;;;3.60;;
44572;SDS011;31762;45.420;10.072;2023-08-01T18:53:44;3.95;;;3.25;;
44572;SDS011;31762;45.420;10.072;2023-08-01T18:58:46;4.80;;;3.42;;
44572;SDS011;31762;45.420;10.072;2023-08-01T19:03:53;4.30;;;3.27;;
44572;SDS011;31762;45.420;10.072;2023-08-01T19:08:55;4.07;;;3.47;;
44572;SDS011;31762;45.420;10.072;2023-08-01T19:14:17;4.45;;;3.60;;
44572;SDS011;31762;45.420;10.072;2023-08-01T19:19:20;5.03;;;4.20;;
44572;SDS011;31762;45.420;10.072;2023-08-01T19:24:22;4.50;;;3.80;;
44572;SDS011;31762;45.420;10.072;2023-08-01T19:29:24;3.80;;;3.50;;
44572;SDS011;31762;45.420;10.072;2023-08-01T19:34:27;3.90;;;3.53;;
44572;SDS011;31762;45.420;10.072;2023-08-01T19:39:29;5.60;;;3.80;;
44572;SDS011;31762;45.420;10.072;2023-08-01T19:44:31;4.78;;;3.83;;
44572;SDS011;31762;45.420;10.072;2023-08-01T19:49:34;4.05;;;3.65;;
44572;SDS011;31762;45.420;10.072;2023-08-01T19:54:36;5.00;;;3.90;;
44572;SDS011;31762;45.420;10.072;2023-08-01T19:59:38;6.25;;;4.47;;
44572;SDS011;31762;45.420;10.072;2023-08-01T20:04:41;4.65;;;4.05;;
44572;SDS011;31762;45.420;10.072;2023-08-01T20:09:43;5.67;;;4.30;;
44572;SDS011;31762;45.420;10.072;2023-08-01T20:14:45;5.22;;;4.60;;
44572;SDS011;31762;45.420;10.072;2023-08-01T20:19:48;6.20;;;4.53;;
44572;SDS011;31762;45.420;10.072;2023-08-01T20:24:50;6.05;;;5.45;;
44572;SDS011;31762;45.420;10.072;2023-08-01T20:29:52;5.63;;;4.60;;
44572;SDS011;31762;45.420;10.072;2023-08-01T20:34:54;5.80;;;4.40;;
44572;SDS011;31762;45.420;10.072;2023-08-01T20:39:57;6.78;;;5.30;;
44572;SDS011;31762;45.420;10.072;2023-08-01T20:44:59;5.88;;;4.50;;
44572;SDS011;31762;45.420;10.072;2023-08-01T20:50:02;7.70;;;4.67;;
44572;SDS011;31762;45.420;10.072;2023-08-01T20:55:04;5.82;;;4.53;;
44572;SDS011;31762;45.420;10.072;2023-08-01T21:00:06;9.53;;;8.53;;
44572;SDS011;31762;45.420;10.072;2023-08-01T21:05:09;8.75;;;7.85;;
44572;SDS011;31762;45.420;10.072;2023-08-01T21:10:11;7.97;;;6.95;;
44572;SDS011;31762;45.420;10.072;2023-08-01T21:15:13;7.93;;;7.03;;
44572;SDS011;31762;45.420;10.072;2023-08-01T21:20:15;8.93;;;8.02;;
44572;SDS011;31762;45.420;10.072;2023-08-01T21:25:18;9.85;;;7.93;;
44572;SDS011;31762;45.420;10.072;2023-08-01T21:30:20;6.85;;;5.90;;
44572;SDS011;31762;45.420;10.072;2023-08-01T21:35:23;7.97;;;7.18;;
44572;SDS011;31762;45.420;10.072;2023-08-01T21:40:25;8.48;;;6.82;;
44572;SDS011;31762;45.420;10.072;2023-08-01T21:45:27;7.75;;;6.18;;
44572;SDS011;31762;45.420;10.072;2023-08-01T21:50:29;8.33;;;6.10;;
44572;SDS011;31762;45.420;10.072;2023-08-01T21:55:32;6.88;;;5.88;;
44572;SDS011;31762;45.420;10.072;2023-08-01T22:00:34;7.68;;;6.65;;
44572;SDS011;31762;45.420;10.072;2023-08-01T22:05:36;7.67;;;6.53;;
44572;SDS011;31762;45.420;10.072;2023-08-01T22:10:38;11.02;;;10.02;;
44572;SDS011;31762;45.420;10.072;2023-08-01T22:15:41;13.40;;;11.80;;
44572;SDS011;31762;45.420;10.072;2023-08-01T22:20:43;12.13;;;10.40;;
44572;SDS011;31762;45.420;10.072;2023-08-01T22:25:46;6.50;;;5.88;;
44572;SDS011;31762;45.420;10.072;2023-08-01T22:30:48;8.67;;;6.67;;
44572;SDS011;31762;45.420;10.072;2023-08-01T22:35:51;7.88;;;6.63;;
44572;SDS011;31762;45.420;10.072;2023-08-01T22:40:53;7.47;;;6.73;;
44572;SDS011;31762;45.420;10.072;2023-08-01T22:45:55;8.10;;;7.30;;
44572;SDS011;31762;45.420;10.072;2023-08-01T22:50:58;8.82;;;6.85;;
44572;SDS011;31762;45.420;10.072;2023-08-01T22:56:00;7.85;;;7.15;;
44572;SDS011;31762;45.420;10.072;2023-08-01T23:01:02;9.53;;;7.23;;
44572;SDS011;31762;45.420;10.072;2023-08-01T23:06:05;8.02;;;7.30;;
44572;SDS011;31762;45.420;10.072;2023-08-01T23:11:07;8.70;;;7.10;;
44572;SDS011;31762;45.420;10.072;2023-08-01T23:16:09;10.68;;;8.57;;
44572;SDS011;31762;45.420;10.072;2023-08-01T23:21:12;9.68;;;8.68;;
44572;SDS011;31762;45.420;10.072;2023-08-01T23:26:14;10.53;;;9.23;;
44572;SDS011;31762;45.420;10.072;2023-08-01T23:31:16;11.27;;;9.32;;
44572;SDS011;31762;45.420;10.072;2023-08-01T23:36:19;9.00;;;8.10;;
44572;SDS011;31762;45.420;10.072;2023-08-01T23:59:14;11.40;;;10.02;;
